DIRECCIÓN GENERAL DE AERONÁUTICA CIVIL
DIRECCIÓN METEOROLÓGICA DE CHILE
INFORMACIÓN METAR Y TAF

FIR SANTIAGO

Estación: SCSE
METAR SCSE 232200Z 32006KT CAVOK 12/06 Q1024=

TAF SCSE 232202Z 2400/2424 29005KT CAVOK TX16/2418Z TN04/2410Z BECMG 2400/2402 15005KT BECMG 2402/2404 VRB02KT BECMG 2415/2417 29004KT BECMG 2416/2418 30012KT=

Estación: SCER
METAR SCER 161100Z 00000KT 7000 OVC014 12/10 Q1015=

TAF SCER NIL=

Estación: SCRD
METAR SCRD 232200Z 16010KT CAVOK 09/05 Q1026=

TAF SCRD 231112Z 2312/2324 VRB02KT CAVOK TX13/2318Z TN08/2312Z TEMPO 2312/2314 5000 BR SCT040 BECMG 2314/2316 19010KT=

Estación: SCVM
METAR SCVM 232200Z 16004KT CAVOK 12/07 Q1026=

TAF SCVM 232203Z 2400/2424 VRB02KT CAVOK TX16/2419Z TN04/2410Z TEMPO 2410/2412 0500 FG BKN005 BECMG 2415/2417 29010KT=

Estación: SCTB
METAR SCTB 232200Z 00000KT 5000 HZ SCT060 10/02 Q1027=

TAF AMD SCTB 231306Z 2314/2324 VRB02KT 5000 HZ SCT015 OVC070 TX12/ 2318Z TN05/2312Z BECMG 2316/2318 SCT070 BECMG 2318/2320 20008KT=

Estación: SCEL
METAR SCEL 232200Z 22005KT 9999 FEW050 11/03 Q1026 NOSIG=

TAF SCEL 232203Z 2400/2424 18004KT 9999 SCT035 TX16/2419Z TNM01/2411Z BECMG 2400/2402 CAVOK BECMG 2403/2405 VRB02KT BECMG 2406/2408 5000 HZ BECMG 2408/2410 3000 BR TEMPO 2409/2414 0500 FG SCT003 BECMG 2415/ 2417 16003KT 8000 NSC BECMG 2418/2420 20010KT=

Estación: SCSN
METAR SCSN 232200Z 17004KT CAVOK 10/06 Q1028=

TAF SCSN 231112Z 2312/2324 16005KT CAVOK TX12/2318Z TN07/2312Z TEMPO 2312/2314 5000 BR BECMG 2314/2316 20015KT=

Estación: SCRG
METAR SCRG 232100Z 15011KT 8000 FEW050 09/03 Q1026=

TAF SCRG 231115Z 2312/2324 16005KT 5000 BR BKN030 TX11/2318Z TN05/ 2312Z TEMPO 2312/2313 3000 BR BKN010 BECMG 2313/2315 8000 SCT030 BECMG 2315/2317 21007KT CAVOK=

Estación: SCIC
METAR SCIC 232200Z 20005KT CAVOK 06/02 Q1028=

TAF AMD SCIC 231421Z 2315/2324 21008KT 5000 HZ BKN008 TX11/2319Z TN03 /2315Z TEMPO 2315/2317 3000 BR OVC005 BECMG 2318/2320 18012KT 9999 SCT015=

Estación: SCCH
METAR SCCH 232200Z 20006KT CAVOK 09/03 Q1030=

TAF SCCH 231117Z 2312/2324 VRB02KT CAVOK TX12/2318Z TN03/2312Z TEMPO 2312/2314 4000 BR BECMG 2316/2318 18009KT=

Estación: SCIE
METAR SCIE 232200Z 22008KT CAVOK 11/05 Q1030=

TAF SCIE 232205Z 2400/2424 23010KT CAVOK TX10/2418Z TN01/2410Z TEMPO 2321/2401 SCT033 BECMG 2401/2403 15003KT BECMG 2403/2405 VRB02KT SCT015 TEMPO 2410/2412 0500 FG SCT005 BKN012 BECMG 2413/2415 5000 HZ SCT012 BKN020 BECMG 2415/2417 22010KT 9999 BKN025=

Estación: SCGE
METAR SCGE 232200Z 19009KT CAVOK 09/00 Q1030=

TAF SCGE 231118Z 2312/2324 VRB02KT CAVOK TX11/2318Z TN02/2312Z TEMPO 2312/2314 15004KT 5000 BR BECMG 2314/2316 19010KT=


Volver